createdAt,value
2022-11-29T00:01:12.644Z,9.07
2022-11-29T00:03:39.346Z,9.04
2022-11-29T00:06:12.415Z,9.13
2022-11-29T00:08:39.371Z,9.30
2022-11-29T00:11:08.423Z,9.32
2022-11-29T00:13:35.350Z,9.22
2022-11-29T00:16:07.294Z,9.32
2022-11-29T00:18:34.146Z,9.14
2022-11-29T00:21:04.463Z,9.36
2022-11-29T00:23:31.000Z,9.30
2022-11-29T00:26:06.593Z,9.69
2022-11-29T00:28:33.724Z,9.65
2022-11-29T00:31:00.389Z,9.43
2022-11-29T00:33:27.803Z,9.68
2022-11-29T00:35:54.310Z,9.37
2022-11-29T00:38:20.809Z,10.15
2022-11-29T00:40:51.826Z,9.41
2022-11-29T00:43:18.398Z,9.64
2022-11-29T00:45:44.997Z,9.55
2022-11-29T00:48:11.531Z,9.58
2022-11-29T00:50:38.027Z,9.31
2022-11-29T00:53:04.586Z,9.10
2022-11-29T00:55:31.068Z,9.29
2022-11-29T00:57:57.538Z,9.21
2022-11-29T01:00:24.277Z,9.12
2022-11-29T01:02:50.878Z,9.15
2022-11-29T01:05:18.256Z,8.87
2022-11-29T01:07:44.870Z,8.93
2022-11-29T01:10:11.497Z,9.05
2022-11-29T01:12:39.370Z,9.06
2022-11-29T01:15:07.297Z,8.97
2022-11-29T01:17:38.445Z,9.00
2022-11-29T01:20:09.438Z,9.04
2022-11-29T01:22:36.769Z,9.07
2022-11-29T01:25:04.119Z,9.22
2022-11-29T01:27:30.678Z,9.46
2022-11-29T01:29:57.224Z,9.28
2022-11-29T01:32:23.811Z,9.38
2022-11-29T01:34:50.506Z,9.14
2022-11-29T01:37:17.157Z,9.29
2022-11-29T01:39:43.680Z,9.24
2022-11-29T01:42:11.420Z,9.30
2022-11-29T01:44:37.851Z,9.39
2022-11-29T01:47:04.703Z,9.36
2022-11-29T01:49:44.039Z,9.28
2022-11-29T01:52:16.612Z,9.18
2022-11-29T01:54:47.248Z,9.07
2022-11-29T01:57:14.209Z,9.21
2022-11-29T01:59:50.891Z,9.17
2022-11-29T02:02:41.498Z,9.30
2022-11-29T02:05:09.249Z,9.23
2022-11-29T02:07:37.292Z,9.05
2022-11-29T02:10:05.508Z,9.16
2022-11-29T02:12:39.873Z,9.16
2022-11-29T02:15:43.419Z,9.12
2022-11-29T02:18:14.768Z,9.41
2022-11-29T02:21:09.444Z,9.69
2022-11-29T02:24:02.328Z,9.41
2022-11-29T02:26:50.785Z,9.41
2022-11-29T02:29:42.254Z,9.54
2022-11-29T02:32:34.009Z,9.59
2022-11-29T02:35:28.595Z,9.35
2022-11-29T02:38:06.999Z,9.34
2022-11-29T02:40:58.408Z,9.31
2022-11-29T02:44:05.523Z,9.29
2022-11-29T02:47:06.075Z,9.26
2022-11-29T02:49:47.861Z,9.35
2022-11-29T02:52:25.114Z,9.28
2022-11-29T02:55:15.473Z,9.18
2022-11-29T02:58:13.435Z,9.48
2022-11-29T03:00:49.248Z,9.96
2022-11-29T03:03:24.118Z,9.36
2022-11-29T03:06:04.769Z,9.24
2022-11-29T03:08:58.786Z,9.24
2022-11-29T03:11:38.226Z,9.23
2022-11-29T03:14:14.683Z,9.37
2022-11-29T03:16:47.548Z,9.20
2022-11-29T03:19:42.669Z,9.18
2022-11-29T03:22:41.509Z,9.18
2022-11-29T03:25:17.692Z,9.22
2022-11-29T03:27:51.203Z,9.28
2022-11-29T03:30:19.248Z,9.41
2022-11-29T03:32:57.408Z,9.27
2022-11-29T03:35:47.614Z,9.35
2022-11-29T03:38:47.124Z,9.31
2022-11-29T03:41:37.460Z,9.46
2022-11-29T03:44:12.992Z,9.55
2022-11-29T03:46:58.296Z,9.65
2022-11-29T03:49:43.237Z,9.46
2022-11-29T03:52:20.016Z,9.84
2022-11-29T03:55:08.838Z,9.81
2022-11-29T03:57:54.150Z,9.34
2022-11-29T04:00:21.312Z,9.45
2022-11-29T04:03:20.195Z,9.28
2022-11-29T04:06:03.942Z,9.34
2022-11-29T04:08:36.616Z,9.30
2022-11-29T04:11:24.225Z,9.28
2022-11-29T04:14:02.963Z,9.29
2022-11-29T04:16:53.323Z,9.74
2022-11-29T04:19:54.791Z,9.77
2022-11-29T04:22:24.328Z,9.55
2022-11-29T04:25:13.035Z,9.50
2022-11-29T04:27:49.556Z,9.44
2022-11-29T04:30:26.059Z,9.27
2022-11-29T04:33:13.615Z,9.28
2022-11-29T04:36:06.714Z,9.22
2022-11-29T04:39:09.363Z,9.30
2022-11-29T04:41:54.667Z,9.42
2022-11-29T04:44:30.858Z,9.34
2022-11-29T04:47:15.269Z,9.37
2022-11-29T04:49:56.795Z,9.47
2022-11-29T04:52:58.652Z,9.39
2022-11-29T04:55:46.774Z,9.45
2022-11-29T04:58:25.470Z,9.76
2022-11-29T05:01:02.102Z,9.35
2022-11-29T05:03:37.781Z,9.43
2022-11-29T05:06:20.008Z,9.26
2022-11-29T05:09:08.222Z,9.14
2022-11-29T05:11:58.575Z,9.35
2022-11-29T05:14:59.047Z,9.18
2022-11-29T05:17:37.152Z,9.41
2022-11-29T05:20:24.260Z,9.44
2022-11-29T05:23:10.548Z,9.39
2022-11-29T05:26:28.400Z,9.37
2022-11-29T05:29:16.259Z,9.16
2022-11-29T05:32:16.664Z,9.22
2022-11-29T05:35:02.920Z,9.27
2022-11-29T05:38:01.961Z,9.62
2022-11-29T05:40:53.267Z,9.80
2022-11-29T05:43:37.569Z,9.76
2022-11-29T05:46:22.802Z,10.01
2022-11-29T05:49:20.086Z,9.51
2022-11-29T05:52:19.217Z,9.48
2022-11-29T05:55:17.122Z,9.45
2022-11-29T05:58:12.133Z,9.50
2022-11-29T06:00:54.684Z,10.15
2022-11-29T06:03:29.938Z,9.55
2022-11-29T06:06:15.552Z,9.50
2022-11-29T06:08:50.347Z,9.54
2022-11-29T06:11:26.810Z,9.54
2022-11-29T06:14:08.609Z,9.52
2022-11-29T06:17:02.308Z,9.31
2022-11-29T06:19:58.493Z,9.36
2022-11-29T06:22:51.224Z,9.39
2022-11-29T06:26:02.339Z,9.43
2022-11-29T06:28:42.323Z,9.52
2022-11-29T06:31:31.741Z,9.82
2022-11-29T06:34:10.981Z,9.57
2022-11-29T06:37:19.095Z,9.43
2022-11-29T06:39:45.962Z,9.51
2022-11-29T06:42:12.459Z,9.44
2022-11-29T06:44:39.276Z,9.55
2022-11-29T06:47:32.628Z,9.59
2022-11-29T06:50:23.964Z,9.65
2022-11-29T06:53:02.738Z,9.54
2022-11-29T06:55:53.019Z,9.68
2022-11-29T06:58:42.631Z,9.69
2022-11-29T07:01:34.198Z,9.61
2022-11-29T07:04:19.175Z,9.75
2022-11-29T07:06:46.097Z,9.72
2022-11-29T07:09:16.934Z,9.88
2022-11-29T07:11:45.168Z,9.83
2022-11-29T07:14:12.160Z,9.83
2022-11-29T07:16:44.124Z,9.75
2022-11-29T07:19:38.612Z,9.88
2022-11-29T07:22:36.351Z,9.90
2022-11-29T07:25:17.149Z,9.96
2022-11-29T07:28:17.971Z,10.02
2022-11-29T07:30:59.885Z,9.98
2022-11-29T07:33:42.067Z,10.06
2022-11-29T07:36:34.537Z,10.22
2022-11-29T07:39:16.320Z,9.70
2022-11-29T07:42:33.115Z,10.19
2022-11-29T07:45:12.647Z,9.63
2022-11-29T07:47:39.233Z,9.73
2022-11-29T07:50:06.346Z,9.98
2022-11-29T07:52:33.412Z,9.98
2022-11-29T07:54:59.964Z,10.00
2022-11-29T07:57:26.515Z,9.74
2022-11-29T07:59:53.046Z,10.11
2022-11-29T08:02:30.472Z,10.04
2022-11-29T08:04:57.772Z,9.98
2022-11-29T08:07:24.476Z,9.82
2022-11-29T08:09:51.393Z,10.00
2022-11-29T08:12:17.881Z,10.25
2022-11-29T08:14:44.652Z,10.06
2022-11-29T08:17:11.310Z,9.58
2022-11-29T08:19:37.877Z,9.41
2022-11-29T08:22:04.734Z,10.15
2022-11-29T08:24:31.599Z,9.93
2022-11-29T08:26:58.110Z,9.90
2022-11-29T08:29:25.231Z,9.81
2022-11-29T08:31:53.977Z,9.76
2022-11-29T08:34:21.526Z,9.81
2022-11-29T08:36:48.966Z,9.91
2022-11-29T08:39:15.746Z,9.97
2022-11-29T08:41:42.359Z,10.01
2022-11-29T08:44:09.296Z,9.97
2022-11-29T08:46:54.663Z,9.96
2022-11-29T08:49:21.226Z,9.85
2022-11-29T08:51:47.835Z,10.22
2022-11-29T08:54:14.482Z,10.01
2022-11-29T08:59:27.719Z,10.26
2022-11-29T09:01:54.300Z,10.14
2022-11-29T09:04:20.868Z,10.04
2022-11-29T09:06:49.553Z,10.00
2022-11-29T09:09:16.593Z,10.02
2022-11-29T09:11:46.985Z,10.03
2022-11-29T09:14:17.025Z,10.43
2022-11-29T09:16:43.592Z,10.32
2022-11-29T09:19:10.269Z,10.24
2022-11-29T09:21:36.894Z,9.92
2022-11-29T09:24:06.295Z,10.54
2022-11-29T09:26:35.084Z,10.36
2022-11-29T09:29:04.979Z,10.44
2022-11-29T09:31:33.003Z,10.27
2022-11-29T09:34:00.220Z,10.29
2022-11-29T09:36:29.220Z,10.16
2022-11-29T09:39:02.749Z,10.12
2022-11-29T09:41:38.766Z,10.26
2022-11-29T09:44:20.569Z,10.40
2022-11-29T09:47:05.752Z,10.38
2022-11-29T09:50:16.693Z,10.34
2022-11-29T09:52:55.437Z,10.34
2022-11-29T09:55:59.358Z,10.55
2022-11-29T09:58:31.795Z,10.73
2022-11-29T10:01:03.371Z,10.36
2022-11-29T10:03:39.336Z,10.36
2022-11-29T10:06:19.751Z,10.28
2022-11-29T10:09:03.870Z,10.22
2022-11-29T10:11:38.208Z,10.34
2022-11-29T10:14:26.744Z,10.45
2022-11-29T10:17:24.624Z,10.48
2022-11-29T10:19:54.926Z,10.68
2022-11-29T10:22:38.177Z,10.59
2022-11-29T10:25:08.262Z,10.19
2022-11-29T10:27:36.005Z,10.53
2022-11-29T10:30:02.692Z,11.15
2022-11-29T10:32:32.127Z,11.23
2022-11-29T10:35:00.805Z,10.74
2022-11-29T10:37:32.564Z,10.98
2022-11-29T10:40:07.976Z,10.45
2022-11-29T10:42:49.726Z,10.76
2022-11-29T10:45:34.889Z,10.73
2022-11-29T10:48:12.647Z,10.94
2022-11-29T10:50:43.860Z,10.76
2022-11-29T10:53:14.868Z,10.58
2022-11-29T10:56:19.883Z,10.59
2022-11-29T10:59:05.299Z,10.92
2022-11-29T11:01:37.160Z,11.07
2022-11-29T11:04:07.416Z,10.79
2022-11-29T11:06:46.215Z,10.85
2022-11-29T11:09:22.307Z,10.78
2022-11-29T11:11:54.699Z,11.22
2022-11-29T11:14:26.596Z,11.26
2022-11-29T11:16:53.990Z,10.82
2022-11-29T11:19:30.392Z,10.76
2022-11-29T11:22:04.095Z,10.66
2022-11-29T11:24:39.733Z,10.55
2022-11-29T11:27:06.461Z,10.73
2022-11-29T11:29:39.712Z,10.89
2022-11-29T11:32:17.125Z,11.24
2022-11-29T11:35:01.677Z,11.05
2022-11-29T11:37:33.533Z,10.58
2022-11-29T11:40:20.126Z,10.45
2022-11-29T11:42:47.025Z,10.62
2022-11-29T11:45:13.598Z,10.63
2022-11-29T11:47:44.713Z,10.59
2022-11-29T11:50:16.710Z,10.71
2022-11-29T11:52:50.772Z,10.77
2022-11-29T11:55:29.694Z,10.63
2022-11-29T11:58:08.965Z,10.58
2022-11-29T12:01:04.297Z,10.65
2022-11-29T12:03:37.259Z,11.12
2022-11-29T12:06:25.424Z,11.36
2022-11-29T12:08:57.544Z,11.48
2022-11-29T12:11:24.610Z,10.93
2022-11-29T12:13:56.383Z,10.85
2022-11-29T12:16:30.151Z,10.92
2022-11-29T12:19:17.656Z,11.51
2022-11-29T12:21:52.467Z,11.13
2022-11-29T12:24:29.994Z,10.80
2022-11-29T12:27:03.548Z,10.98
2022-11-29T12:29:33.471Z,11.23
2022-11-29T12:32:27.996Z,10.95
2022-11-29T12:35:18.955Z,11.27
2022-11-29T12:38:03.458Z,10.93
2022-11-29T12:40:38.548Z,10.93
2022-11-29T12:43:28.410Z,11.08
2022-11-29T12:46:13.755Z,10.52
2022-11-29T12:48:45.989Z,10.73
2022-11-29T12:51:25.056Z,10.87
2022-11-29T12:54:23.767Z,10.86
2022-11-29T12:56:59.451Z,10.81
2022-11-29T13:00:00.768Z,10.78
2022-11-29T13:02:48.977Z,10.98
2022-11-29T13:05:55.547Z,10.88
2022-11-29T13:08:59.562Z,11.00
2022-11-29T13:11:40.101Z,10.92
2022-11-29T13:14:44.438Z,10.80
2022-11-29T13:17:36.096Z,10.89
2022-11-29T13:20:42.273Z,10.62
2022-11-29T13:24:07.765Z,10.93
2022-11-29T13:26:30.856Z,10.97
2022-11-29T13:28:58.304Z,11.18
2022-11-29T13:31:25.514Z,10.80
2022-11-29T13:34:03.868Z,10.73
2022-11-29T13:36:42.489Z,10.72
2022-11-29T13:39:40.033Z,10.69
2022-11-29T13:42:12.548Z,10.90
2022-11-29T13:45:03.951Z,11.02
2022-11-29T13:47:30.471Z,10.84
2022-11-29T13:50:03.561Z,11.01
2022-11-29T13:52:42.010Z,11.04
2022-11-29T13:55:11.711Z,10.57
2022-11-29T14:00:43.800Z,11.03
2022-11-29T14:03:28.354Z,10.73
2022-11-29T14:06:11.455Z,10.77
2022-11-29T14:11:42.682Z,11.32
2022-11-29T14:14:35.847Z,10.98
2022-11-29T14:17:05.212Z,11.18
2022-11-29T14:19:37.074Z,11.06
2022-11-29T14:22:06.477Z,11.04
2022-11-29T14:24:35.837Z,11.18
2022-11-29T14:27:14.057Z,10.78
2022-11-29T14:29:53.865Z,10.96
2022-11-29T14:32:44.395Z,11.04
2022-11-29T14:35:12.641Z,11.14
2022-11-29T14:38:21.785Z,10.95
2022-11-29T14:41:06.545Z,11.01
2022-11-29T14:43:36.576Z,11.15
2022-11-29T14:46:16.530Z,11.23
2022-11-29T14:48:57.254Z,10.99
2022-11-29T14:51:26.214Z,10.99
2022-11-29T14:54:16.739Z,10.94
2022-11-29T14:56:44.879Z,10.78
2022-11-29T14:59:49.269Z,10.84
2022-11-29T15:02:26.909Z,11.27
2022-11-29T15:04:57.019Z,11.09
2022-11-29T15:07:31.918Z,11.27
2022-11-29T15:10:02.718Z,11.31
2022-11-29T15:12:35.712Z,11.08
2022-11-29T15:15:27.264Z,11.15
2022-11-29T15:18:05.304Z,11.10
2022-11-29T15:20:44.370Z,10.73
2022-11-29T15:23:18.695Z,10.71
2022-11-29T15:25:53.933Z,10.35
2022-11-29T15:28:25.970Z,10.80
2022-11-29T15:31:11.020Z,10.44
2022-11-29T15:33:49.561Z,10.47
2022-11-29T15:36:22.044Z,10.83
2022-11-29T15:38:54.688Z,10.84
2022-11-29T15:41:34.747Z,10.05
2022-11-29T15:44:06.692Z,10.26
2022-11-29T15:46:34.906Z,10.64
2022-11-29T15:49:24.888Z,10.55
2022-11-29T15:52:02.182Z,10.65
2022-11-29T15:54:42.913Z,10.74
2022-11-29T15:57:24.939Z,10.44
2022-11-29T15:59:55.679Z,10.36
2022-11-29T16:02:29.261Z,10.65
2022-11-29T16:05:10.777Z,10.35
2022-11-29T16:07:39.210Z,10.48
2022-11-29T16:10:19.537Z,10.35
2022-11-29T16:12:55.558Z,10.23
2022-11-29T16:15:29.628Z,10.37
2022-11-29T16:17:56.408Z,10.70
2022-11-29T16:20:25.145Z,10.91
2022-11-29T16:23:13.835Z,10.91
2022-11-29T16:26:01.209Z,10.77
2022-11-29T16:28:42.374Z,10.68
2022-11-29T16:31:12.478Z,10.62
2022-11-29T16:33:43.698Z,10.57
2022-11-29T16:36:15.479Z,10.70
2022-11-29T16:39:15.135Z,11.24
2022-11-29T16:41:41.721Z,10.83
2022-11-29T16:44:39.962Z,10.87
2022-11-29T16:47:20.891Z,10.76
2022-11-29T16:50:02.677Z,10.52
2022-11-29T16:52:31.640Z,10.58
2022-11-29T16:54:58.297Z,10.72
2022-11-29T16:57:26.227Z,10.68
2022-11-29T16:59:52.758Z,10.48
2022-11-29T17:02:19.292Z,10.34
2022-11-29T17:04:46.152Z,10.41
2022-11-29T17:07:26.960Z,10.34
2022-11-29T17:09:53.784Z,10.45
2022-11-29T17:12:20.347Z,10.47
2022-11-29T17:14:47.244Z,10.41
2022-11-29T17:17:15.605Z,10.33
2022-11-29T17:19:42.391Z,10.69
2022-11-29T17:22:09.276Z,10.60
2022-11-29T17:24:37.295Z,10.16
2022-11-29T17:27:04.358Z,10.41
2022-11-29T17:29:30.917Z,10.47
2022-11-29T17:31:57.480Z,10.32
2022-11-29T17:34:24.219Z,10.46
2022-11-29T17:36:51.114Z,10.56
2022-11-29T17:39:20.063Z,10.31
2022-11-29T17:41:46.966Z,10.21
2022-11-29T17:44:13.537Z,10.25
2022-11-29T17:46:40.167Z,10.38
2022-11-29T17:49:08.795Z,10.19
2022-11-29T17:51:54.141Z,10.54
2022-11-29T17:54:24.142Z,10.77
2022-11-29T17:56:51.883Z,10.50
2022-11-29T17:59:18.706Z,10.27
2022-11-29T18:01:47.191Z,10.19
2022-11-29T18:04:14.144Z,10.19
2022-11-29T18:06:41.275Z,10.04
2022-11-29T18:09:09.793Z,10.12
2022-11-29T18:11:48.035Z,10.03
2022-11-29T18:14:22.592Z,10.18
2022-11-29T18:16:49.543Z,10.19
2022-11-29T18:19:18.532Z,10.05
2022-11-29T18:21:45.060Z,10.06
2022-11-29T18:24:11.670Z,10.12
2022-11-29T18:26:39.276Z,10.20
2022-11-29T18:29:07.072Z,9.98
2022-11-29T18:31:36.387Z,9.90
2022-11-29T18:34:06.996Z,9.91
2022-11-29T18:36:37.427Z,9.97
2022-11-29T18:39:10.937Z,10.34
2022-11-29T18:41:37.848Z,10.13
2022-11-29T18:44:10.612Z,9.86
2022-11-29T18:46:40.148Z,9.93
2022-11-29T18:49:08.522Z,9.95
2022-11-29T18:51:36.388Z,10.07
2022-11-29T18:54:03.338Z,10.12
2022-11-29T18:56:32.024Z,10.25
2022-11-29T18:59:07.858Z,10.33
2022-11-29T19:01:37.750Z,10.09
2022-11-29T19:04:04.656Z,10.37
2022-11-29T19:06:39.335Z,10.50
2022-11-29T19:09:11.320Z,10.71
2022-11-29T19:11:38.226Z,10.57
2022-11-29T19:14:11.149Z,10.41
2022-11-29T19:16:39.961Z,10.51
2022-11-29T19:19:06.579Z,10.37
2022-11-29T19:21:34.532Z,10.20
2022-11-29T19:24:07.573Z,10.16
2022-11-29T19:26:34.436Z,10.12
2022-11-29T19:29:01.840Z,10.25
2022-11-29T19:31:28.924Z,10.27
2022-11-29T19:33:57.215Z,10.39
2022-11-29T19:36:29.383Z,10.46
2022-11-29T19:38:56.970Z,10.31
2022-11-29T19:41:26.195Z,10.09
2022-11-29T19:43:53.134Z,10.18
2022-11-29T19:46:24.222Z,10.29
2022-11-29T19:48:58.475Z,10.33
2022-11-29T19:51:27.063Z,10.12
2022-11-29T19:53:55.702Z,10.22
2022-11-29T19:56:23.547Z,10.37
2022-11-29T19:58:50.947Z,10.45
2022-11-29T20:01:23.259Z,10.28
2022-11-29T20:03:50.562Z,10.15
2022-11-29T20:06:18.843Z,10.38
2022-11-29T20:08:45.484Z,10.32
2022-11-29T20:11:13.523Z,10.27
2022-11-29T20:13:41.770Z,10.25
2022-11-29T20:16:13.847Z,10.27
2022-11-29T20:18:48.732Z,10.32
2022-11-29T20:21:18.616Z,10.07
2022-11-29T20:23:45.564Z,10.23
2022-11-29T20:26:19.880Z,10.15
2022-11-29T20:28:47.525Z,10.21
2022-11-29T20:31:18.159Z,10.17
2022-11-29T20:33:46.318Z,10.21
2022-11-29T20:36:37.665Z,10.16
2022-11-29T20:39:30.394Z,10.32
2022-11-29T20:42:18.434Z,10.13
2022-11-29T20:44:54.308Z,10.21
2022-11-29T20:47:25.900Z,10.09
2022-11-29T20:49:52.963Z,10.11
2022-11-29T20:52:28.723Z,10.02
2022-11-29T20:54:55.281Z,10.03
2022-11-29T20:57:21.969Z,9.97
2022-11-29T20:59:48.606Z,9.97
2022-11-29T21:02:15.172Z,9.86
2022-11-29T21:04:41.780Z,9.88
2022-11-29T21:07:08.268Z,10.10
2022-11-29T21:10:05.137Z,10.01
2022-11-29T21:12:32.243Z,9.90
2022-11-29T21:14:59.068Z,9.87
2022-11-29T21:17:31.840Z,9.96
2022-11-29T21:20:00.176Z,10.16
2022-11-29T21:22:29.607Z,10.11
2022-11-29T21:25:11.197Z,10.02
2022-11-29T21:27:38.013Z,10.05
2022-11-29T21:30:15.447Z,10.03
2022-11-29T21:32:42.572Z,10.03
2022-11-29T21:35:09.222Z,10.07
2022-11-29T21:37:36.047Z,10.10
2022-11-29T21:40:02.679Z,10.21
2022-11-29T21:42:29.220Z,10.48
2022-11-29T21:44:55.654Z,10.36
2022-11-29T21:47:22.298Z,10.52
2022-11-29T21:49:48.863Z,10.39
2022-11-29T21:52:22.047Z,10.10
2022-11-29T21:54:49.640Z,9.98
2022-11-29T21:57:16.188Z,10.00
2022-11-29T21:59:42.696Z,9.94
2022-11-29T22:02:09.289Z,9.89
2022-11-29T22:04:35.832Z,9.87
2022-11-29T22:07:02.392Z,9.99
2022-11-29T22:09:28.929Z,10.02
2022-11-29T22:11:55.428Z,10.04
2022-11-29T22:14:21.896Z,9.99
2022-11-29T22:16:52.576Z,9.91
2022-11-29T22:19:20.719Z,10.35
2022-11-29T22:21:49.876Z,10.05
2022-11-29T22:24:19.394Z,9.95
2022-11-29T22:26:46.840Z,9.95
2022-11-29T22:29:14.868Z,9.88
2022-11-29T22:31:42.630Z,9.91
2022-11-29T22:34:09.376Z,9.79
2022-11-29T22:36:37.255Z,9.77
2022-11-29T22:39:05.039Z,9.87
2022-11-29T22:41:32.414Z,10.16
2022-11-29T22:43:59.076Z,9.82
2022-11-29T22:46:27.402Z,10.21
2022-11-29T22:48:55.815Z,10.06
2022-11-29T22:51:25.581Z,9.79
2022-11-29T22:53:53.370Z,9.68
2022-11-29T22:56:20.750Z,10.32
2022-11-29T22:58:47.529Z,9.78
2022-11-29T23:01:16.208Z,9.78
2022-11-29T23:03:45.462Z,9.84
2022-11-29T23:06:17.297Z,9.83
2022-11-29T23:08:45.121Z,9.76
2022-11-29T23:11:14.126Z,9.83
2022-11-29T23:13:42.260Z,9.89
2022-11-29T23:16:11.458Z,10.07
2022-11-29T23:18:39.184Z,9.86
2022-11-29T23:21:08.752Z,10.26
2022-11-29T23:23:35.939Z,10.28
2022-11-29T23:26:04.246Z,9.97
2022-11-29T23:28:30.971Z,10.01
2022-11-29T23:30:59.213Z,9.94
2022-11-29T23:33:27.264Z,9.96
2022-11-29T23:36:02.015Z,9.83
2022-11-29T23:38:28.574Z,10.06
2022-11-29T23:40:55.165Z,10.28
2022-11-29T23:43:22.214Z,10.12
2022-11-29T23:45:49.082Z,9.90
2022-11-29T23:48:15.994Z,9.96
2022-11-29T23:50:43.128Z,9.86
2022-11-29T23:53:13.130Z,9.69
2022-11-29T23:55:40.134Z,9.73
2022-11-29T23:58:06.678Z,9.70
